createdAt,value
2022-12-18T00:09:31.102Z,1017
2022-12-18T00:23:32.290Z,1017
2022-12-18T00:37:36.502Z,1017
2022-12-18T00:51:43.678Z,1017
2022-12-18T01:05:47.128Z,1017
2022-12-18T01:19:52.689Z,1017
2022-12-18T01:33:58.618Z,1017
2022-12-18T01:48:10.991Z,1017
2022-12-18T02:02:18.349Z,1017
2022-12-18T02:16:20.821Z,1017
2022-12-18T02:30:25.377Z,1017
2022-12-18T02:44:27.564Z,1017
2022-12-18T02:58:29.805Z,1017
2022-12-18T03:12:37.255Z,1016
2022-12-18T03:26:40.994Z,1016
2022-12-18T03:40:47.055Z,1016
2022-12-18T03:54:50.158Z,1016
2022-12-18T04:08:58.550Z,1016
2022-12-18T04:23:04.280Z,1016
2022-12-18T04:37:08.198Z,1016
2022-12-18T04:51:12.367Z,1016
2022-12-18T05:05:13.997Z,1016
2022-12-18T05:19:16.510Z,1016
2022-12-18T05:33:18.756Z,1016
2022-12-18T05:47:20.182Z,1016
2022-12-18T06:01:33.924Z,1016
2022-12-18T06:15:27.969Z,1016
2022-12-18T06:29:29.935Z,1016
2022-12-18T06:43:35.772Z,1016
2022-12-18T06:57:43.622Z,1016
2022-12-18T07:11:46.975Z,1015
2022-12-18T07:25:53.345Z,1015
2022-12-18T07:39:55.244Z,1015
2022-12-18T07:54:00.298Z,1015
2022-12-18T08:08:06.693Z,1015
2022-12-18T08:22:09.750Z,1015
2022-12-18T08:36:27.031Z,1014
2022-12-18T08:50:42.161Z,1014
2022-12-18T09:04:57.064Z,1014
2022-12-18T09:18:55.464Z,1014
2022-12-18T09:33:01.100Z,1014
2022-12-18T09:47:09.824Z,1014
2022-12-18T10:01:15.963Z,1014
2022-12-18T10:15:23.829Z,1013
2022-12-18T10:29:28.885Z,1013
2022-12-18T10:45:39.748Z,1013
2022-12-18T10:59:31.979Z,1013
2022-12-18T11:13:46.613Z,1013
2022-12-18T11:28:12.768Z,1013
2022-12-18T11:42:11.654Z,1012
2022-12-18T11:56:18.199Z,1013
2022-12-18T12:10:25.947Z,1012
2022-12-18T12:24:29.220Z,1012
2022-12-18T12:38:40.136Z,1012
2022-12-18T12:52:44.324Z,1012
2022-12-18T13:06:51.172Z,1012
2022-12-18T13:21:02.881Z,1012
2022-12-18T13:35:07.245Z,1012
2022-12-18T13:49:10.427Z,1011
2022-12-18T14:03:15.450Z,1012
2022-12-18T14:17:17.408Z,1012
2022-12-18T14:31:17.890Z,1012
2022-12-18T14:45:19.458Z,1012
2022-12-18T14:59:26.637Z,1011
2022-12-18T15:13:31.631Z,1011
2022-12-18T15:27:39.529Z,1011
2022-12-18T15:41:47.015Z,1011
2022-12-18T15:56:00.811Z,1011
2022-12-18T16:10:02.288Z,1011
2022-12-18T16:24:07.363Z,1011
2022-12-18T16:38:16.675Z,1011
2022-12-18T16:52:24.231Z,1011
2022-12-18T17:06:30.253Z,1010
2022-12-18T17:20:39.443Z,1010
2022-12-18T17:34:44.659Z,1010
2022-12-18T17:48:46.742Z,1010
2022-12-18T18:02:49.860Z,1011
2022-12-18T18:16:58.777Z,1010
2022-12-18T18:31:06.597Z,1010
2022-12-18T18:45:16.806Z,1010
2022-12-18T18:59:30.167Z,1011
2022-12-18T19:13:34.080Z,1011
2022-12-18T19:27:43.440Z,1011
2022-12-18T19:41:52.570Z,1011
2022-12-18T19:56:03.033Z,1011
2022-12-18T20:10:11.461Z,1010
2022-12-18T20:24:18.125Z,1010
2022-12-18T20:38:25.525Z,1010
2022-12-18T20:52:36.652Z,1010
2022-12-18T21:06:49.355Z,1010
2022-12-18T21:20:52.109Z,1009
2022-12-18T21:34:58.906Z,1009
2022-12-18T21:49:09.438Z,1009
2022-12-18T22:03:20.267Z,1009
2022-12-18T22:17:29.288Z,1009
2022-12-18T22:31:39.504Z,1009
2022-12-18T22:45:47.536Z,1009
2022-12-18T22:59:57.344Z,1008
2022-12-18T23:14:03.569Z,1008
2022-12-18T23:28:16.959Z,1008
2022-12-18T23:42:17.472Z,1008
2022-12-18T23:56:27.950Z,1007
